Time;durP1;ratioP1;P1;durP2;ratioP2;P2;SDS_P1;SDS_P2;PMS_P1;PMS_P2;Temp;Humidity;BMP_temperature;BMP_pressure;BME280_temperature;BME280_humidity;BME280_pressure;Samples;Min_cycle;Max_cycle;Signal;HPM_P1;HPM_P2
2023/01/13 00:00:44;;;;;;;6.40;1.10;;;;;;;8.28;91.54;100429.44;5053063;27;96807;-29
2023/01/13 00:03:09;;;;;;;9.45;1.08;;;;;;;8.25;92.04;100418.81;5052268;27;99471;-29
2023/01/13 00:05:36;;;;;;;16.83;1.90;;;;;;;8.24;92.79;100428.72;5051977;27;98769;-29
2023/01/13 00:08:04;;;;;;;8.95;0.80;;;;;;;8.22;92.67;100418.97;5050514;27;97317;-29
2023/01/13 00:10:29;;;;;;;6.03;1.20;;;;;;;8.23;93.09;100426.13;5052227;27;96797;-30
2023/01/13 00:12:55;;;;;;;7.38;1.20;;;;;;;8.23;92.68;100423.44;5051070;27;97985;-30
2023/01/13 00:15:20;;;;;;;4.18;0.82;;;;;;;8.24;92.99;100430.56;5052170;27;99792;-30
2023/01/13 00:17:47;;;;;;;5.45;0.70;;;;;;;8.21;92.94;100423.50;5050946;27;96530;-30
2023/01/13 00:20:13;;;;;;;6.60;1.25;;;;;;;8.22;93.25;100414.47;5050895;27;96817;-31
2023/01/13 00:22:38;;;;;;;6.05;1.48;;;;;;;8.23;93.36;100424.31;5052058;27;97558;-29
2023/01/13 00:25:05;;;;;;;3.85;0.93;;;;;;;8.25;93.05;100418.81;5052536;27;99093;-29
2023/01/13 00:27:31;;;;;;;4.70;1.02;;;;;;;8.27;92.84;100427.66;5050482;27;97114;-29
2023/01/13 00:29:56;;;;;;;14.13;2.28;;;;;;;8.29;93.57;100414.97;5050680;27;96821;-29
2023/01/13 00:32:22;;;;;;;3.13;0.75;;;;;;;8.30;93.21;100419.41;5052008;27;97369;-30
2023/01/13 00:34:47;;;;;;;12.68;1.27;;;;;;;8.31;93.37;100415.75;5051970;27;97214;-29
2023/01/13 00:37:13;;;;;;;5.95;1.23;;;;;;;8.31;93.24;100418.44;5051962;27;96517;-29
2023/01/13 00:39:39;;;;;;;5.78;1.42;;;;;;;8.25;93.51;100413.44;5052295;27;96750;-29
2023/01/13 00:44:48;;;;;;;2.13;1.17;;;;;;;8.27;93.75;100411.47;5051842;27;97066;-29
2023/01/13 00:47:13;;;;;;;7.60;1.25;;;;;;;8.25;93.82;100418.81;5051768;27;96466;-29
2023/01/13 00:49:39;;;;;;;16.65;1.95;;;;;;;8.23;93.86;100418.03;5052096;27;97296;-29
2023/01/13 00:52:04;;;;;;;6.10;1.48;;;;;;;8.22;93.98;100417.19;5051681;27;106862;-29
2023/01/13 00:54:30;;;;;;;7.88;1.30;;;;;;;8.19;94.07;100411.94;5051903;27;97834;-28
2023/01/13 00:56:55;;;;;;;9.60;1.65;;;;;;;8.20;94.22;100407.41;5051242;27;96617;-29
2023/01/13 00:59:20;;;;;;;9.23;1.35;;;;;;;8.16;94.33;100395.94;5052103;27;96793;-30
2023/01/13 01:01:45;;;;;;;4.68;1.35;;;;;;;8.14;94.73;100391.59;5051422;27;101268;-29
2023/01/13 01:04:11;;;;;;;3.38;0.85;;;;;;;8.09;95.09;100392.72;5051583;27;97954;-29
2023/01/13 01:06:36;;;;;;;4.72;1.52;;;;;;;8.06;95.12;100387.53;5051839;27;96573;-30
2023/01/13 01:09:03;;;;;;;6.35;1.23;;;;;;;8.02;95.44;100399.44;5051682;27;96788;-30
2023/01/13 01:11:31;;;;;;;1.60;0.38;;;;;;;8.01;95.57;100404.94;5049984;27;100912;-29
2023/01/13 01:13:59;;;;;;;8.00;0.77;;;;;;;7.97;95.82;100415.03;5050539;27;101112;-29
2023/01/13 01:16:26;;;;;;;9.65;1.48;;;;;;;7.97;95.58;100404.25;5050268;27;96550;-30
2023/01/13 01:18:53;;;;;;;17.58;1.15;;;;;;;7.94;95.74;100388.25;5050235;27;96890;-29
2023/01/13 01:21:20;;;;;;;11.07;1.52;;;;;;;7.95;95.67;100389.97;5049527;27;101420;-30
2023/01/13 01:23:45;;;;;;;8.70;1.40;;;;;;;7.94;95.73;100390.09;5051499;27;101193;-28
2023/01/13 01:26:13;;;;;;;3.95;0.93;;;;;;;7.94;95.73;100388.25;5055289;27;96481;-29
2023/01/13 01:28:39;;;;;;;5.80;1.30;;;;;;;7.89;95.79;100387.66;5052776;27;96875;-30
2023/01/13 01:31:07;;;;;;;1.52;0.45;;;;;;;7.90;95.48;100381.28;5054561;27;97901;-29
2023/01/13 01:33:32;;;;;;;6.93;0.75;;;;;;;7.88;95.26;100394.84;5053413;27;100807;-29
2023/01/13 01:35:59;;;;;;;2.25;0.90;;;;;;;7.87;95.51;100392.25;5054773;27;96522;-29
2023/01/13 01:38:25;;;;;;;1.63;0.68;;;;;;;7.89;95.08;100393.03;5053883;27;96781;-29
2023/01/13 01:40:50;;;;;;;6.70;0.82;;;;;;;7.86;95.04;100386.00;5054426;27;99433;-29
2023/01/13 01:46:04;;;;;;;7.65;1.38;;;;;;;7.85;94.28;100386.94;5054770;27;96592;-29
2023/01/13 01:48:37;;;;;;;5.38;0.90;;;;;;;7.83;94.20;100374.50;5053414;27;97136;-29
2023/01/13 01:51:04;;;;;;;7.57;1.33;;;;;;;7.82;93.74;100379.03;5053064;27;100858;-28
2023/01/13 01:53:31;;;;;;;10.15;1.35;;;;;;;7.84;93.19;100384.31;5052992;27;100766;-29
2023/01/13 01:55:59;;;;;;;14.23;1.40;;;;;;;7.82;93.21;100378.19;5052994;27;96666;-29
2023/01/13 01:58:33;;;;;;;5.03;1.35;;;;;;;7.81;92.49;100381.81;5053007;27;96816;-29
2023/01/13 02:00:58;;;;;;;6.28;1.25;;;;;;;7.84;92.92;100403.19;5052896;27;101066;-29
2023/01/13 02:03:24;;;;;;;4.20;1.10;;;;;;;7.84;92.54;100393.31;5053231;27;99163;-29
2023/01/13 02:05:50;;;;;;;9.07;1.25;;;;;;;7.86;92.25;100388.69;5054747;27;96534;-29
2023/01/13 02:08:16;;;;;;;10.73;1.45;;;;;;;7.86;92.64;100377.91;5053056;27;96870;-29
2023/01/13 02:10:44;;;;;;;6.10;1.33;;;;;;;7.87;92.24;100378.78;5051952;27;100959;-29
2023/01/13 02:13:12;;;;;;;5.07;0.77;;;;;;;7.88;92.31;100372.41;5052760;27;100782;-29
2023/01/13 02:15:45;;;;;;;1.80;0.77;;;;;;;7.86;91.98;100366.22;5052829;27;96739;-29
2023/01/13 02:18:28;;;;;;;7.18;1.40;;;;;;;7.87;90.80;100370.69;5052759;27;96808;-28
2023/01/13 02:21:06;;;;;;;9.15;1.73;;;;;;;7.87;91.21;100370.69;5054174;27;97892;-28
2023/01/13 02:26:48;;;;;;;10.30;2.08;;;;;;;7.88;90.91;100351.69;5052838;27;96580;-29
2023/01/13 02:33:08;;;;;;;3.55;0.95;;;;;;;7.84;89.62;100354.66;5054063;27;97072;-29
2023/01/13 02:35:53;;;;;;;5.80;1.05;;;;;;;7.88;89.65;100350.84;5052718;27;97339;-29
2023/01/13 02:38:25;;;;;;;6.07;0.88;;;;;;;7.83;89.09;100345.72;5051966;27;97144;-30
2023/01/13 02:44:05;;;;;;;6.40;1.33;;;;;;;7.83;89.71;100355.63;5052549;27;96705;-31
2023/01/13 02:44:07;;;;;;;4.68;1.35;;;;;;;7.78;89.62;100358.59;5052892;27;98921;-30
2023/01/13 02:46:38;;;;;;;4.22;1.30;;;;;;;7.74;89.24;100354.34;5053620;27;99678;-29
2023/01/13 02:49:09;;;;;;;7.07;1.30;;;;;;;7.75;89.54;100348.00;5052410;27;96703;-29
2023/01/13 02:51:37;;;;;;;9.15;2.10;;;;;;;7.76;89.79;100363.19;5052165;27;96736;-29
2023/01/13 02:54:08;;;;;;;5.43;1.30;;;;;;;7.73;89.84;100365.22;5052037;27;101192;-29
2023/01/13 02:56:40;;;;;;;12.85;1.60;;;;;;;7.77;89.59;100374.84;5052150;27;101207;-29
2023/01/13 02:59:07;;;;;;;10.52;2.33;;;;;;;7.72;89.90;100363.47;5052274;27;96648;-29
2023/01/13 03:01:32;;;;;;;8.52;1.25;;;;;;;7.76;89.63;100373.97;5053580;27;96756;-29
2023/01/13 03:03:57;;;;;;;11.77;0.88;;;;;;;7.75;89.70;100360.63;5052951;27;97889;-29
2023/01/13 03:06:43;;;;;;;14.38;1.55;;;;;;;7.73;90.21;100347.22;5053254;27;103705;-29
2023/01/13 03:09:21;;;;;;;3.22;0.93;;;;;;;7.75;90.07;100366.00;5051837;27;96730;-29
2023/01/13 03:12:18;;;;;;;9.40;1.30;;;;;;;7.73;90.19;100359.84;5051961;27;96719;-28
2023/01/13 03:15:03;;;;;;;11.10;1.92;;;;;;;7.70;90.45;100368.97;5053182;27;98049;-28
2023/01/13 03:18:06;;;;;;;3.25;0.90;;;;;;;7.69;90.73;100377.13;5051587;27;100965;-29
2023/01/13 03:20:36;;;;;;;1.95;0.88;;;;;;;7.73;90.96;100378.69;5046820;27;96912;-30
2023/01/13 03:23:06;;;;;;;3.97;0.75;;;;;;;7.71;91.36;100381.47;5051813;27;96919;-30
2023/01/13 03:25:36;;;;;;;2.28;0.80;;;;;;;7.66;91.60;100368.25;5051678;27;101042;-30
2023/01/13 03:28:18;;;;;;;4.63;0.85;;;;;;;7.66;91.65;100365.56;5051015;27;100918;-30
2023/01/13 03:30:52;;;;;;;11.48;1.67;;;;;;;7.64;91.86;100375.56;5051248;27;97201;-29
2023/01/13 03:33:25;;;;;;;3.17;0.60;;;;;;;7.63;91.98;100364.88;5051756;27;96966;-29
2023/01/13 03:35:56;;;;;;;4.95;1.20;;;;;;;7.58;92.01;100353.47;5052726;27;99406;-28
2023/01/13 03:38:42;;;;;;;7.97;0.90;;;;;;;7.62;92.08;100357.75;5051486;27;100931;-29
2023/01/13 03:41:32;;;;;;;0.77;0.35;;;;;;;7.63;92.19;100363.06;5051564;27;96584;-28
2023/01/13 03:44:21;;;;;;;3.47;0.75;;;;;;;7.62;91.95;100365.81;5051511;27;96911;-29
2023/01/13 03:47:04;;;;;;;1.63;0.40;;;;;;;7.59;91.81;100360.63;5051084;27;101268;-29
2023/01/13 03:49:52;;;;;;;2.97;0.55;;;;;;;7.62;91.80;100369.38;5053224;27;97427;-29
2023/01/13 03:52:25;;;;;;;1.52;0.43;;;;;;;7.59;91.60;100364.16;5044625;27;96644;-29
2023/01/13 03:54:57;;;;;;;4.65;0.93;;;;;;;7.60;91.54;100363.25;5053019;27;96466;-29
2023/01/13 03:57:28;;;;;;;7.88;0.77;;;;;;;7.61;91.39;100366.78;5050621;27;101158;-29
2023/01/13 03:59:59;;;;;;;1.00;0.47;;;;;;;7.58;90.74;100369.63;5051210;27;100830;-31
2023/01/13 04:02:39;;;;;;;3.50;0.77;;;;;;;7.60;90.63;100374.03;5052498;27;96455;-29
2023/01/13 04:05:08;;;;;;;6.03;0.50;;;;;;;7.57;90.81;100367.91;5051187;27;96660;-29
2023/01/13 04:07:46;;;;;;;3.80;0.88;;;;;;;7.57;90.44;100376.00;5051011;27;100948;-29
2023/01/13 04:10:15;;;;;;;6.07;0.38;;;;;;;7.54;89.51;100370.78;5052578;27;97832;-29
2023/01/13 04:12:59;;;;;;;1.08;0.35;;;;;;;7.56;89.86;100379.66;5051166;27;96689;-29
2023/01/13 04:15:26;;;;;;;0.05;0.05;;;;;;;7.52;89.46;100360.09;5052898;27;96704;-28
2023/01/13 04:17:53;;;;;;;4.72;0.43;;;;;;;7.53;89.84;100379.81;5050727;27;100931;-29
2023/01/13 04:20:18;;;;;;;1.48;0.40;;;;;;;7.51;89.34;100363.75;5052524;27;97171;-29
2023/01/13 04:22:44;;;;;;;4.10;0.35;;;;;;;7.53;88.76;100371.72;5051713;27;96593;-29
2023/01/13 04:25:10;;;;;;;0.47;0.35;;;;;;;7.52;88.90;100372.69;5052302;27;96828;-29
2023/01/13 04:27:35;;;;;;;2.45;0.45;;;;;;;7.49;89.29;100368.34;5050511;27;100868;-29
2023/01/13 04:30:01;;;;;;;1.33;0.25;;;;;;;7.50;89.13;100372.78;5052063;27;97407;-29
2023/01/13 04:32:26;;;;;;;1.10;0.38;;;;;;;7.50;89.43;100366.53;5052324;27;96676;-31
2023/01/13 04:34:51;;;;;;;2.83;0.47;;;;;;;7.49;89.57;100354.88;5052294;27;96824;-29
2023/01/13 04:37:17;;;;;;;3.25;0.32;;;;;;;7.51;89.39;100366.44;5052085;27;97811;-29
2023/01/13 04:39:42;;;;;;;0.35;0.15;;;;;;;7.49;89.57;100360.28;5052070;27;103401;-29
2023/01/13 04:42:07;;;;;;;0.75;0.43;;;;;;;7.50;89.67;100369.22;5052311;27;96821;-29
2023/01/13 04:44:34;;;;;;;4.03;0.40;;;;;;;7.49;89.49;100370.19;5051586;27;100767;-29
2023/01/13 04:47:04;;;;;;;11.35;0.82;;;;;;;7.51;90.16;100376.34;5051000;27;99553;-29
2023/01/13 04:49:29;;;;;;;0.85;0.43;;;;;;;7.51;90.39;100376.34;5050491;27;100939;-29
2023/01/13 04:51:54;;;;;;;1.48;0.55;;;;;;;7.53;90.58;100386.09;5051763;27;96786;-29
2023/01/13 04:54:20;;;;;;;5.18;0.50;;;;;;;7.56;90.67;100387.75;5052170;27;96714;-29
2023/01/13 04:56:45;;;;;;;2.75;0.65;;;;;;;7.56;90.79;100394.00;5051976;27;97816;-29
2023/01/13 04:59:12;;;;;;;0.93;0.25;;;;;;;7.59;90.60;100390.25;5054043;27;97846;-30
2023/01/13 05:01:38;;;;;;;2.75;0.82;;;;;;;7.59;90.58;100385.75;5053998;27;96701;-29
2023/01/13 05:04:04;;;;;;;9.23;0.70;;;;;;;7.59;90.34;100392.97;5055641;27;96920;-29
2023/01/13 05:06:30;;;;;;;2.08;0.90;;;;;;;7.58;90.20;100389.41;5070941;27;100514;-29
2023/01/13 05:08:56;;;;;;;0.75;0.28;;;;;;;7.58;89.66;100391.19;5055313;27;97933;-29
2023/01/13 05:17:00;;;;;;;3.30;0.38;;;;;;;7.61;89.87;100374.88;5055162;27;97056;-29
2023/01/13 05:19:31;;;;;;;3.45;0.30;;;;;;;7.59;89.79;100379.47;5053739;27;100927;-29
2023/01/13 05:27:26;;;;;;;3.55;0.60;;;;;;;7.59;89.17;100387.56;5052660;27;98114;-28
2023/01/13 05:29:51;;;;;;;2.97;0.65;;;;;;;7.58;89.14;100385.81;5055347;27;97392;-29
2023/01/13 05:32:16;;;;;;;1.08;0.35;;;;;;;7.54;88.94;100390.53;5054896;27;96580;-29
2023/01/13 05:34:42;;;;;;;2.63;0.52;;;;;;;7.54;88.84;100395.91;5054987;27;96784;-29
2023/01/13 05:37:09;;;;;;;7.05;0.65;;;;;;;7.53;88.26;100399.56;5054044;27;97395;-31
2023/01/13 05:45:03;;;;;;;4.85;0.43;;;;;;;7.53;88.32;100385.22;5054632;27;96866;-29
2023/01/13 05:47:30;;;;;;;4.35;0.45;;;;;;;7.54;88.46;100384.28;5054547;27;98469;-29
2023/01/13 05:49:55;;;;;;;1.20;0.52;;;;;;;7.53;87.64;100395.97;5054459;27;97444;-29
2023/01/13 05:52:20;;;;;;;1.30;0.70;;;;;;;7.50;86.94;100386.25;5054766;27;96816;-29
2023/01/13 05:54:46;;;;;;;2.58;0.68;;;;;;;7.53;86.36;100396.88;5054768;27;100490;-30
2023/01/13 05:57:11;;;;;;;9.52;1.25;;;;;;;7.55;85.92;100397.63;5054163;27;99162;-29
2023/01/13 05:59:36;;;;;;;3.47;0.45;;;;;;;7.58;85.95;100407.38;5054588;27;97794;-31
2023/01/13 06:02:02;;;;;;;8.27;1.13;;;;;;;7.59;85.88;100401.91;5053574;27;103786;-29
2023/01/13 06:04:27;;;;;;;10.10;1.33;;;;;;;7.63;86.07;100405.31;5054400;27;96773;-29
2023/01/13 06:06:52;;;;;;;11.52;0.82;;;;;;;7.64;86.31;100398.94;5054359;27;97375;-29
2023/01/13 06:09:19;;;;;;;1.73;0.43;;;;;;;7.62;85.10;100388.25;5053847;27;106521;-29
2023/01/13 06:11:45;;;;;;;4.70;0.40;;;;;;;7.65;85.51;100392.59;5054238;27;96616;-28
2023/01/13 06:14:11;;;;;;;2.50;0.60;;;;;;;7.67;85.30;100377.22;5054481;27;96792;-29
2023/01/13 06:16:36;;;;;;;2.00;0.38;;;;;;;7.66;85.60;100384.44;5053794;27;100594;-29
2023/01/13 06:19:01;;;;;;;3.75;1.20;;;;;;;7.66;85.89;100375.47;5054312;27;98344;-29
2023/01/13 06:21:27;;;;;;;3.88;0.63;;;;;;;7.68;86.02;100381.66;5054301;27;96633;-29
2023/01/13 06:23:52;;;;;;;5.00;1.08;;;;;;;7.69;85.77;100382.53;5053806;27;96824;-29
2023/01/13 06:26:23;;;;;;;5.75;1.10;;;;;;;7.72;85.25;100379.63;5053523;27;98952;-29
2023/01/13 06:28:49;;;;;;;0.90;0.30;;;;;;;7.71;85.01;100373.38;5053541;27;97737;-30
2023/01/13 06:31:15;;;;;;;2.78;0.90;;;;;;;7.72;85.68;100385.91;5053739;27;96743;-29
2023/01/13 06:33:54;;;;;;;2.50;0.22;;;;;;;7.72;85.31;100395.81;5052588;27;96835;-29
2023/01/13 06:36:28;;;;;;;3.65;1.08;;;;;;;7.71;85.51;100392.25;5054007;27;97712;-29
2023/01/13 06:38:57;;;;;;;2.95;1.20;;;;;;;7.74;85.81;100402.00;5052520;27;99155;-29
2023/01/13 06:44:08;;;;;;;1.23;0.68;;;;;;;7.73;85.39;100397.56;5054528;27;96543;-29
2023/01/13 06:46:34;;;;;;;4.80;0.85;;;;;;;7.73;84.84;100401.13;5052274;27;100935;-29
2023/01/13 06:48:59;;;;;;;2.95;0.80;;;;;;;7.78;85.07;100403.56;5052228;27;100931;-29
2023/01/13 06:51:25;;;;;;;3.83;0.82;;;;;;;7.81;85.04;100406.06;5053225;27;96596;-32
2023/01/13 06:53:50;;;;;;;5.32;1.70;;;;;;;7.80;84.64;100416.00;5053689;27;96766;-28
2023/01/13 06:56:15;;;;;;;3.40;1.20;;;;;;;7.81;84.93;100420.41;5053297;27;98558;-29
2023/01/13 06:58:41;;;;;;;1.65;0.80;;;;;;;7.76;84.86;100408.16;5053297;27;99282;-29
2023/01/13 07:01:06;;;;;;;0.75;0.40;;;;;;;7.80;84.53;100415.13;5053691;27;96494;-30
2023/01/13 07:03:31;;;;;;;1.55;0.57;;;;;;;7.80;83.94;100401.66;5053606;27;96793;-29
2023/01/13 07:05:57;;;;;;;8.40;1.35;;;;;;;7.82;84.48;100411.41;5051898;27;100869;-29
2023/01/13 07:08:23;;;;;;;1.90;0.93;;;;;;;7.81;83.93;100406.06;5052107;27;101468;-29
2023/01/13 07:10:50;;;;;;;3.30;0.80;;;;;;;7.81;83.82;100409.63;5053225;27;96676;-30
2023/01/13 07:16:02;;;;;;;0.75;0.25;;;;;;;7.78;84.04;100414.34;5052990;27;97096;-28
2023/01/13 07:18:30;;;;;;;6.57;0.63;;;;;;;7.78;83.33;100409.81;5051726;27;100865;-29
2023/01/13 07:21:01;;;;;;;7.13;1.25;;;;;;;7.78;83.26;100406.25;5052574;27;96484;-33
2023/01/13 07:23:28;;;;;;;5.20;0.77;;;;;;;7.83;83.70;100420.34;5053518;27;96677;-29
2023/01/13 07:25:55;;;;;;;2.33;0.68;;;;;;;7.84;83.29;100438.25;5052999;27;97434;-29
2023/01/13 07:28:20;;;;;;;6.40;0.52;;;;;;;7.82;83.40;100427.56;5050955;27;100882;-30
2023/01/13 07:30:46;;;;;;;3.17;0.68;;;;;;;7.83;83.11;100431.13;5052655;27;106141;-28
2023/01/13 07:33:11;;;;;;;4.07;0.47;;;;;;;7.84;82.87;100431.06;5053544;27;96722;-29
2023/01/13 07:35:36;;;;;;;7.13;0.82;;;;;;;7.87;81.79;100435.41;5052581;27;99094;-29
2023/01/13 07:38:02;;;;;;;5.07;1.15;;;;;;;7.91;82.49;100430.69;5052859;27;97482;-29
2023/01/13 07:40:27;;;;;;;1.88;0.80;;;;;;;7.93;82.47;100436.88;5052403;27;96473;-29
2023/01/13 07:45:37;;;;;;;4.38;0.52;;;;;;;7.94;82.45;100430.53;5052596;27;97091;-29
2023/01/13 07:48:02;;;;;;;6.05;1.13;;;;;;;7.94;81.37;100442.19;5052627;27;97297;-28
2023/01/13 07:50:27;;;;;;;8.25;1.65;;;;;;;7.94;82.01;100439.50;5052651;27;97141;-28
2023/01/13 07:52:57;;;;;;;4.93;0.65;;;;;;;7.99;81.95;100455.41;5052844;27;96792;-29
2023/01/13 07:55:22;;;;;;;2.63;0.85;;;;;;;7.99;81.63;100453.56;5051232;27;100610;-29
2023/01/13 07:57:47;;;;;;;6.43;0.70;;;;;;;8.01;81.39;100466.97;5053005;27;97361;-29
2023/01/13 08:00:13;;;;;;;6.72;1.33;;;;;;;8.03;81.49;100465.03;5052567;27;96582;-29
2023/01/13 08:02:39;;;;;;;4.30;0.93;;;;;;;8.05;80.99;100464.00;5052423;27;96873;-29
2023/01/13 08:05:04;;;;;;;2.67;1.50;;;;;;;8.06;80.13;100465.75;5052025;27;97212;-29
2023/01/13 08:07:30;;;;;;;4.55;1.33;;;;;;;8.09;81.17;100468.25;5052000;27;99428;-30
2023/01/13 08:09:55;;;;;;;3.45;0.75;;;;;;;8.08;81.16;100471.94;5051883;27;96621;-29
2023/01/13 08:15:05;;;;;;;5.90;1.17;;;;;;;8.07;80.73;100472.88;5051219;27;97056;-29
2023/01/13 08:17:31;;;;;;;4.65;1.10;;;;;;;8.10;80.65;100490.69;5051499;27;97396;-29
2023/01/13 08:19:56;;;;;;;0.93;0.50;;;;;;;8.14;80.84;100483.31;5051352;27;98865;-29
2023/01/13 08:22:21;;;;;;;7.00;0.75;;;;;;;8.13;80.50;100492.34;5051539;27;96863;-30
2023/01/13 08:24:47;;;;;;;8.00;0.85;;;;;;;8.17;80.32;100485.84;5051967;27;97910;-28
2023/01/13 08:27:12;;;;;;;2.25;0.65;;;;;;;8.18;80.09;100493.00;5051967;27;97730;-29
2023/01/13 08:29:37;;;;;;;8.25;1.38;;;;;;;8.18;80.22;100501.09;5052010;27;96577;-29
2023/01/13 08:32:03;;;;;;;1.55;0.47;;;;;;;8.13;80.59;100489.66;5050714;27;96848;-30
2023/01/13 08:34:28;;;;;;;2.28;0.77;;;;;;;8.14;81.17;100503.06;5054964;27;97954;-29
2023/01/13 08:36:54;;;;;;;3.25;0.98;;;;;;;8.10;81.61;100509.59;5053107;27;104778;-29
2023/01/13 08:39:19;;;;;;;3.22;0.50;;;;;;;8.07;82.38;100507.94;5053470;27;96922;-33
2023/01/13 08:41:57;;;;;;;1.83;0.73;;;;;;;8.02;82.66;100512.72;5053505;27;96904;-29
2023/01/13 08:44:28;;;;;;;2.20;1.05;;;;;;;8.03;83.24;100510.88;5068558;27;100986;-29
2023/01/13 08:46:55;;;;;;;1.55;0.68;;;;;;;7.97;83.87;100517.50;5053635;27;99232;-31
2023/01/13 08:49:23;;;;;;;10.82;1.75;;;;;;;7.89;84.41;100511.69;5051897;27;97189;-31
2023/01/13 08:51:48;;;;;;;4.03;0.75;;;;;;;7.87;84.41;100517.16;5053941;27;97118;-30
2023/01/13 08:54:15;;;;;;;8.77;1.20;;;;;;;7.77;85.32;100525.81;5053568;27;101018;-29
2023/01/13 08:56:41;;;;;;;3.50;0.52;;;;;;;7.75;85.81;100534.03;5055575;27;97933;-30
2023/01/13 08:59:12;;;;;;;6.65;1.05;;;;;;;7.71;85.96;100521.66;5055442;27;96636;-30
2023/01/13 09:01:39;;;;;;;2.03;0.80;;;;;;;7.71;86.48;100536.97;5054057;27;96694;-29
2023/01/13 09:04:18;;;;;;;8.52;1.83;;;;;;;7.67;87.06;100547.03;5053784;27;100979;-28
2023/01/13 09:06:44;;;;;;;8.50;1.58;;;;;;;7.66;87.13;100546.16;5053952;27;100820;-29
2023/01/13 09:09:10;;;;;;;2.78;0.60;;;;;;;7.65;87.65;100551.63;5053851;27;96566;-29
2023/01/13 09:14:25;;;;;;;5.72;1.02;;;;;;;7.62;87.62;100549.13;5055541;27;97095;-29
2023/01/13 09:16:51;;;;;;;1.88;0.68;;;;;;;7.63;88.10;100554.44;5053622;27;100724;-29
2023/01/13 09:19:16;;;;;;;2.88;0.77;;;;;;;7.64;88.50;100558.84;5054447;27;96580;-28
2023/01/13 09:21:41;;;;;;;6.75;1.48;;;;;;;7.63;88.13;100553.56;5055269;27;96781;-29
2023/01/13 09:24:07;;;;;;;3.70;0.73;;;;;;;7.63;87.97;100558.97;5054783;27;105870;-28
2023/01/13 09:26:33;;;;;;;6.13;1.27;;;;;;;7.67;87.99;100568.59;5053582;27;100804;-29
2023/01/13 09:28:58;;;;;;;10.07;1.27;;;;;;;7.65;87.82;100557.03;5055091;27;96672;-29
2023/01/13 09:31:23;;;;;;;1.05;0.63;;;;;;;7.69;87.99;100561.31;5054946;27;96743;-30
2023/01/13 09:36:33;;;;;;;3.88;0.88;;;;;;;7.72;87.86;100565.66;5055106;27;97023;-29
2023/01/13 09:38:58;;;;;;;7.00;0.60;;;;;;;7.71;87.59;100567.47;5054901;27;96616;-29
2023/01/13 09:44:40;;;;;;;3.03;0.63;;;;;;;7.80;86.95;100593.09;5053604;27;96614;-29
2023/01/13 09:47:35;;;;;;;11.30;1.15;;;;;;;7.80;87.53;100593.09;5053054;27;100980;-29
2023/01/13 09:50:23;;;;;;;3.63;1.00;;;;;;;7.82;87.02;100599.28;5052288;27;96776;-29
2023/01/13 09:52:48;;;;;;;2.10;0.82;;;;;;;7.86;86.26;100590.03;5053409;27;96738;-29
2023/01/13 09:55:32;;;;;;;5.78;0.77;;;;;;;7.89;86.63;100603.38;5053998;27;99337;-30
2023/01/13 09:58:00;;;;;;;8.18;1.02;;;;;;;7.92;86.25;100591.56;5053007;27;100878;-29
2023/01/13 10:00:32;;;;;;;7.32;0.98;;;;;;;7.93;85.71;100604.06;5053179;27;96528;-29
2023/01/13 10:03:16;;;;;;;2.05;1.02;;;;;;;7.97;85.62;100627.22;5055441;27;96969;-29
2023/01/13 10:05:49;;;;;;;5.15;0.63;;;;;;;7.98;85.14;100620.88;5054144;27;98416;-29
2023/01/13 10:08:21;;;;;;;2.85;0.65;;;;;;;7.99;85.52;100612.69;5053066;27;98990;-29
2023/01/13 10:10:55;;;;;;;5.20;0.85;;;;;;;8.01;85.41;100624.28;5052372;27;96942;-29
2023/01/13 10:13:27;;;;;;;5.13;0.63;;;;;;;8.01;85.45;100626.97;5053001;27;96878;-29
2023/01/13 10:16:01;;;;;;;1.65;0.55;;;;;;;8.04;86.34;100629.50;5052632;27;100781;-29
2023/01/13 10:18:37;;;;;;;0.88;0.43;;;;;;;8.07;86.26;100631.16;5054369;27;97829;-29
2023/01/13 10:21:24;;;;;;;10.45;0.88;;;;;;;8.09;85.87;100624.72;5054444;27;96625;-29
2023/01/13 10:24:02;;;;;;;4.88;1.02;;;;;;;8.15;84.97;100639.72;5052494;27;96772;-28
2023/01/13 10:26:46;;;;;;;6.65;1.50;;;;;;;8.18;84.57;100633.28;5052517;27;100989;-30
2023/01/13 10:29:24;;;;;;;3.25;0.70;;;;;;;8.21;84.36;100641.19;5052779;27;102527;-29
2023/01/13 10:31:51;;;;;;;5.78;1.20;;;;;;;8.25;84.12;100665.22;5054221;27;96812;-29
2023/01/13 10:34:16;;;;;;;4.07;0.65;;;;;;;8.29;84.12;100657.81;5052558;27;96834;-28
2023/01/13 10:36:57;;;;;;;1.15;0.30;;;;;;;8.40;83.13;100663.53;5053514;27;97824;-29
2023/01/13 10:39:24;;;;;;;3.63;0.80;;;;;;;8.46;82.97;100659.59;5052358;27;98934;-30
2023/01/13 10:42:02;;;;;;;2.10;0.60;;;;;;;8.48;83.20;100658.56;5053857;27;96688;-29
2023/01/13 10:44:28;;;;;;;9.63;1.50;;;;;;;8.45;82.94;100663.28;5053873;27;96642;-29
2023/01/13 10:46:56;;;;;;;12.20;1.13;;;;;;;8.43;82.48;100666.06;5053662;27;97996;-31
2023/01/13 10:49:37;;;;;;;0.85;0.32;;;;;;;8.47;82.17;100680.25;5051997;27;98893;-28
2023/01/13 10:52:24;;;;;;;1.65;0.52;;;;;;;8.46;82.54;100675.81;5052283;27;96600;-30
2023/01/13 10:54:53;;;;;;;3.95;0.60;;;;;;;8.49;82.42;100668.44;5052677;27;96727;-28
2023/01/13 10:57:24;;;;;;;1.70;0.77;;;;;;;8.50;81.97;100672.84;5052451;27;98026;-29
2023/01/13 10:59:52;;;;;;;3.85;0.70;;;;;;;8.51;81.93;100681.84;5051820;27;101145;-30
2023/01/13 11:02:27;;;;;;;2.95;1.15;;;;;;;8.53;81.76;100679.03;5051583;27;97302;-29
2023/01/13 11:04:52;;;;;;;8.48;1.45;;;;;;;8.53;81.43;100685.31;5053344;27;97000;-28
2023/01/13 11:07:27;;;;;;;4.70;0.85;;;;;;;8.48;81.27;100677.47;5053465;27;97286;-29
2023/01/13 11:10:07;;;;;;;1.52;0.57;;;;;;;8.53;81.92;100697.94;5051878;27;101065;-29
2023/01/13 11:12:40;;;;;;;3.78;0.68;;;;;;;8.52;82.24;100685.41;5053334;27;96560;-28
2023/01/13 11:15:12;;;;;;;3.53;1.40;;;;;;;8.52;82.09;100691.69;5053532;27;96424;-31
2023/01/13 11:17:41;;;;;;;;;;;;;;;8.54;81.48;100689.75;5052292;27;101072;-29
2023/01/13 11:20:31;;;;;;;7.93;1.83;;;;;;;8.59;81.45;100700.31;5052074;27;100547;-29
2023/01/13 11:23:00;;;;;;;2.70;0.65;;;;;;;8.63;81.20;100710.00;5051660;27;96828;-29
2023/01/13 11:25:34;;;;;;;1.38;0.75;;;;;;;8.66;80.15;100691.78;5051686;27;96790;-29
2023/01/13 11:28:32;;;;;;;0.82;0.43;;;;;;;8.72;79.47;100704.03;5050746;27;101366;-31
2023/01/13 11:31:00;;;;;;;0.85;0.40;;;;;;;8.71;79.92;100716.69;5052748;27;98722;-29
2023/01/13 11:33:42;;;;;;;1.60;1.02;;;;;;;8.70;79.86;100714.97;5052883;27;96527;-28
2023/01/13 11:36:20;;;;;;;;;;;;;;;8.69;79.52;100715.03;5052074;27;96647;-29
2023/01/13 11:38:59;;;;;;;1.30;0.85;;;;;;;8.68;79.80;100730.38;5052847;27;99150;-29
2023/01/13 11:45:11;;;;;;;4.80;0.73;;;;;;;8.63;80.06;100732.44;5053382;27;97024;-29
2023/01/13 11:47:37;;;;;;;0.20;0.20;;;;;;;8.63;79.83;100735.16;5051903;27;96729;-31
2023/01/13 11:50:13;;;;;;;9.18;1.05;;;;;;;8.61;80.32;100734.38;5051195;27;100845;-29
2023/01/13 11:52:51;;;;;;;1.88;0.60;;;;;;;8.66;80.54;100744.91;5051139;27;102592;-30
2023/01/13 11:55:23;;;;;;;1.42;0.40;;;;;;;8.67;80.68;100743.94;5052126;27;96608;-29
2023/01/13 11:58:13;;;;;;;2.47;0.43;;;;;;;8.64;80.43;100734.19;5053116;27;97082;-30
2023/01/13 12:00:59;;;;;;;5.97;0.40;;;;;;;8.65;81.07;100749.44;5052590;27;97572;-29
2023/01/13 12:04:07;;;;;;;5.18;1.23;;;;;;;8.67;81.08;100755.59;5051155;27;100973;-28
2023/01/13 12:06:40;;;;;;;0.85;0.50;;;;;;;8.70;80.61;100747.34;5052760;27;96710;-32
2023/01/13 12:09:18;;;;;;;2.38;0.85;;;;;;;8.75;80.30;100751.59;5051090;27;96676;-29
2023/01/13 12:14:52;;;;;;;5.70;1.15;;;;;;;8.84;80.28;100757.41;5052096;27;96948;-29
2023/01/13 12:17:35;;;;;;;8.52;1.05;;;;;;;8.90;79.37;100764.28;5052627;27;96409;-29
2023/01/13 12:20:14;;;;;;;1.98;0.55;;;;;;;8.87;78.92;100759.91;5052949;27;96614;-29
2023/01/13 12:22:41;;;;;;;1.70;0.43;;;;;;;8.88;79.70;100775.16;5050146;27;100705;-29
2023/01/13 12:25:26;;;;;;;1.20;0.17;;;;;;;8.90;79.36;100772.38;5050813;27;100892;-31
2023/01/13 12:28:19;;;;;;;1.13;0.40;;;;;;;8.86;79.68;100774.38;5050580;27;97571;-30
2023/01/13 12:30:49;;;;;;;12.13;1.20;;;;;;;8.84;79.13;100788.91;5051909;27;96803;-28
2023/01/13 12:33:36;;;;;;;3.83;0.75;;;;;;;8.81;78.66;100784.56;5050752;27;100865;-29
2023/01/13 12:36:42;;;;;;;10.35;1.00;;;;;;;8.81;78.79;100775.59;5052026;27;99634;-30
2023/01/13 12:39:14;;;;;;;1.08;0.57;;;;;;;8.81;79.36;100792.66;5047904;27;96857;-28
2023/01/13 12:44:15;;;;;;;11.07;0.70;;;;;;;8.83;78.93;100795.28;5052647;27;96477;-29